Aeroporto :
LOGIN :

Iscrizione | Disclaimer

   EN    FR    IT 

 










Sommario :    VFR   VFR Marginale   IFR   IFR Intensivo   IFR Molto Intensivo
Visibilità : 
Base nubi : 
>= 8 km
>= 3000ft
5 / 8 km
1000 / 3000 ft
1500m / 5 km
500 / 1000 ft
800 / 1500m
200 / 500 ft
< 800m
< 200 ft
Simboli :   Temporali  Nebbia  Neve Forte  Precipitazioni Forti  Vento > 20 kt
SIGMETs :   Varie  Temporali  Ghiacco  Turbolenza  Onda orograficha  Ceneri Vulcaniche






- Altitudine del aeroporto : 257 ft
- Codice IATA : MAN


EGCC - Manchester

ULTIMO METAR :
  • 010150Z AUTO VRB02KT 9999 OVC042 05/03 Q1028 NOSIG

METARs OBSOLETI :
  • 010120Z AUTO VRB03KT 9999 OVC045 05/03 Q1028
  • 010050Z AUTO VRB02KT 9999 OVC045 05/03 Q1028 NOSIG
  • 010020Z AUTO VRB02KT 9999 OVC046 06/03 Q1028
  • 312350Z AUTO 23002KT 9999 OVC046 06/03 Q1029 NOSIG
  • 312320Z AUTO 25003KT 9999 OVC046 06/03 Q1029

TAF TAF EGCC
Valido dal 01 a 00 ore il 02 a 06 ore UTC


312301Z 0100/0206 25005KT 9999 BKN035
PROB30
TEMPO 0103/0109 BKN009
BECMG 0108/0111 31011KT
PROB30
TEMPO 0109/0120 8000 -SHRA
BECMG 0121/0124 BKN012
PROB30
TEMPO 0200/0206 BKN009
BECMG 0201/0204 25005KT
ATIS : +44 161 499 2324



MetMap, La meteo Aeronautica in un colpo d'occhio ! - Copyright ORBIFLY Dicembre 2007 - Disclaimer

ORBIFLY MET'MAP TEAM :

Programmazione e sviluppo : Alexandra Zaïnal
Concezione : Baudouin d'Aumeries
Aiuto per la programmazione : Marc-Olivier Méhu
Supporto tecnico e logistico : Manuel Goepfert
Aiuto per la traduzione : Arnaldo La Scala

Contatto : metmap@orbifly.com




FONTI E CREDITI :

   NOAA